»·PEaware :: FFT145 KDEN-KSEA

FFT145 :: KDEN-KSEA

FLIGHT INFORMATION

Flight Status: Arrived
Operator:
Frontier Airlines
More flights by this operator :: More flights under this callsign
Pilot: Andrew J. (13363)
Aircraft: AIRBUS A321
(A321)
More flights by this aircraft type
Origin: KDEN Denver Intl
United States
Destination: KSEA Seattle-Tacoma Intl
United States
More flights between these airports :: More routes between these airports
Route: DDRTH1 DDRTH DBS PDT CHINS4
File this flight plan on PilotEdge
Remarks: RMK / SIMBRIEF
Altitude:
(Current/Filed)
34,000ft
Speed:
(Current/Filed)
464kts
Departed: 05-Sep-20 12:07 AM
Arrived: 05-Sep-20 02:25 AM
Distance/Time
Traveled:
888nm/2:18
Distance/Time
To Go:
Arrived

Flight Plot

Page will automatically refresh every two minutes.

Flight plan parsing failed; only flown route is shown


Map Options




Map Legend


Flown Route
Filed Route
Departure Airport
Arrival Airport
Navaid (VOR, NDB)
Fix

Horizontal Profiles

Position Reports

Time Latitude Longitude Heading Altitude Ground
Speed
04-Sep-20 23:57 39.852820 -104.670027 10 5380ft 2kts
04-Sep-20 23:58 39.852693 -104.670066 16 5380ft 0kts
04-Sep-20 23:59 39.852693 -104.670066 16 5380ft 0kts
05-Sep-20 00:00 39.852748 -104.669790 87 5380ft 3kts
05-Sep-20 00:01 39.852724 -104.666869 90 5380ft 10kts
05-Sep-20 00:02 39.852946 -104.663647 90 5387ft 4kts
05-Sep-20 00:03 39.854540 -104.662383 0 5391ft 16kts
05-Sep-20 00:04 39.859636 -104.662308 0 5387ft 18kts
05-Sep-20 00:05 39.860841 -104.660164 177 5386ft 2kts
05-Sep-20 00:06 39.838248 -104.660400 180 5421ft 161kts
05-Sep-20 00:07 39.789870 -104.662644 181 6551ft 176kts
05-Sep-20 00:08 39.746576 -104.684840 267 7533ft 202kts
05-Sep-20 00:09 39.790889 -104.736230 326 8467ft 247kts
05-Sep-20 00:10 39.854725 -104.790746 325 9814ft 295kts
05-Sep-20 00:11 39.926773 -104.854021 325 11269ft 338kts
05-Sep-20 00:12 40.001987 -104.941469 301 12261ft 392kts
05-Sep-20 00:13 40.062764 -105.067167 302 14036ft 419kts
05-Sep-20 00:14 40.126935 -105.194597 304 16681ft 416kts
05-Sep-20 00:15 40.192539 -105.323750 304 18484ft 430kts
05-Sep-20 00:16 40.259162 -105.455945 305 20237ft 440kts
05-Sep-20 00:17 40.327226 -105.591645 305 21916ft 447kts
05-Sep-20 00:18 40.393651 -105.724939 305 23374ft 454kts
05-Sep-20 00:19 40.463239 -105.865199 305 24739ft 461kts
05-Sep-20 00:20 40.533615 -106.007434 305 25990ft 466kts
05-Sep-20 00:21 40.604918 -106.152203 305 27136ft 472kts
05-Sep-20 00:22 40.675293 -106.295860 305 28921ft 458kts
05-Sep-20 00:23 40.744213 -106.437054 306 30206ft 452kts
05-Sep-20 00:24 40.811641 -106.575806 306 31388ft 446kts
05-Sep-20 00:25 40.878127 -106.713502 305 32428ft 440kts
05-Sep-20 00:26 40.943532 -106.849662 305 33336ft 435kts
05-Sep-20 00:27 41.008655 -106.985535 304 34119ft 431kts
05-Sep-20 00:28 41.072477 -107.119281 304 34496ft 426kts
05-Sep-20 00:29 41.136250 -107.252907 304 34498ft 420kts
05-Sep-20 00:30 41.199081 -107.385220 303 34493ft 420kts
05-Sep-20 00:31 41.261708 -107.518102 303 34492ft 420kts
05-Sep-20 00:32 41.324274 -107.651481 303 34491ft 420kts
05-Sep-20 00:33 41.386440 -107.785094 303 34491ft 421kts
05-Sep-20 00:34 41.448759 -107.919260 303 34491ft 420kts
05-Sep-20 00:35 41.510852 -108.053422 303 34491ft 421kts
05-Sep-20 00:36 41.572776 -108.187799 303 34481ft 421kts
05-Sep-20 00:37 41.634457 -108.322242 303 34468ft 421kts
05-Sep-20 00:38 41.696035 -108.457058 303 34464ft 421kts
05-Sep-20 00:39 41.757490 -108.592215 303 34463ft 421kts
05-Sep-20 00:40 41.818581 -108.727474 302 34464ft 421kts
05-Sep-20 00:41 41.879597 -108.863133 302 34463ft 421kts
05-Sep-20 00:42 41.940626 -108.999169 302 34463ft 422kts
05-Sep-20 00:43 42.001717 -109.135908 302 34463ft 425kts
05-Sep-20 00:44 42.062940 -109.273664 302 34463ft 428kts
05-Sep-20 00:45 42.123865 -109.410985 302 34466ft 427kts
05-Sep-20 00:46 42.185462 -109.550062 302 34485ft 427kts
05-Sep-20 00:47 42.245802 -109.687695 301 34503ft 427kts
05-Sep-20 00:48 42.306062 -109.826211 301 34508ft 427kts
05-Sep-20 00:49 42.366315 -109.965009 301 34509ft 427kts
05-Sep-20 00:50 42.426143 -110.103433 301 34509ft 427kts
05-Sep-20 00:51 42.486491 -110.243690 301 34509ft 431kts
05-Sep-20 00:52 42.547080 -110.385186 301 34509ft 431kts
05-Sep-20 00:53 42.607415 -110.526775 301 34497ft 431kts
05-Sep-20 00:54 42.666307 -110.665708 300 34469ft 431kts
05-Sep-20 00:55 42.726073 -110.807807 300 34449ft 432kts
05-Sep-20 00:56 42.785861 -110.950230 300 34446ft 432kts
05-Sep-20 00:57 42.845547 -111.093019 300 34446ft 433kts
05-Sep-20 00:58 42.905075 -111.236186 300 34447ft 432kts
05-Sep-20 00:59 42.964072 -111.378737 300 34447ft 425kts
05-Sep-20 01:00 43.021867 -111.519027 299 34421ft 419kts
05-Sep-20 01:01 43.078753 -111.657886 298 34345ft 417kts
05-Sep-20 01:02 43.135352 -111.796409 298 34313ft 417kts
05-Sep-20 01:03 43.192259 -111.936115 298 34308ft 417kts
05-Sep-20 01:04 43.248769 -112.075917 298 34308ft 417kts
05-Sep-20 01:05 43.305087 -112.216000 298 34306ft 417kts
05-Sep-20 01:06 43.361147 -112.356135 298 34305ft 417kts
05-Sep-20 01:07 43.417067 -112.496617 298 34302ft 417kts
05-Sep-20 01:08 43.473018 -112.637878 298 34301ft 425kts
05-Sep-20 01:09 43.529933 -112.782732 298 34297ft 430kts
05-Sep-20 01:10 43.587277 -112.929032 297 34293ft 433kts
05-Sep-20 01:11 43.644745 -113.076358 297 34292ft 436kts
05-Sep-20 01:12 43.702257 -113.224655 297 34322ft 436kts
05-Sep-20 01:13 43.759525 -113.373037 297 34368ft 436kts
05-Sep-20 01:14 43.816477 -113.521374 297 34379ft 436kts
05-Sep-20 01:15 43.873321 -113.670235 296 34379ft 436kts
05-Sep-20 01:16 43.930010 -113.819913 296 34360ft 436kts
05-Sep-20 01:17 43.986442 -113.969341 296 34338ft 436kts
05-Sep-20 01:18 44.042738 -114.119134 296 34329ft 436kts
05-Sep-20 01:19 44.098989 -114.269615 296 34342ft 436kts
05-Sep-20 01:20 44.155167 -114.419477 296 34333ft 436kts
05-Sep-20 01:21 44.210848 -114.569654 296 34319ft 436kts
05-Sep-20 01:22 44.265891 -114.719486 295 34317ft 436kts
05-Sep-20 01:23 44.320439 -114.868921 295 34317ft 436kts
05-Sep-20 01:24 44.375423 -115.020097 295 34317ft 436kts
05-Sep-20 01:25 44.429531 -115.169597 295 34317ft 437kts
05-Sep-20 01:26 44.484192 -115.321528 295 34312ft 437kts
05-Sep-20 01:27 44.538899 -115.474422 295 34292ft 437kts
05-Sep-20 01:29 44.593486 -115.627826 295 34281ft 437kts
05-Sep-20 01:30 44.647676 -115.781370 294 34280ft 437kts
05-Sep-20 01:31 44.701776 -115.935272 294 34280ft 437kts
05-Sep-20 01:32 44.755600 -116.089155 294 34280ft 437kts
05-Sep-20 01:33 44.809192 -116.243224 294 34280ft 437kts
05-Sep-20 01:34 44.862786 -116.398188 294 34280ft 437kts
05-Sep-20 01:35 44.916011 -116.552987 294 34280ft 437kts
05-Sep-20 01:36 44.968912 -116.707892 293 34279ft 436kts
05-Sep-20 01:37 45.021192 -116.861932 293 34251ft 430kts
05-Sep-20 01:38 45.072658 -117.014140 292 34223ft 426kts
05-Sep-20 01:39 45.124023 -117.166329 291 34217ft 427kts
05-Sep-20 01:40 45.175126 -117.318547 291 34217ft 426kts
05-Sep-20 01:41 45.225833 -117.471107 291 34214ft 426kts
05-Sep-20 01:42 45.276366 -117.624125 291 34209ft 426kts
05-Sep-20 01:43 45.326776 -117.778039 291 34186ft 426kts
05-Sep-20 01:44 45.376930 -117.931821 291 34140ft 427kts
05-Sep-20 01:44 45.418479 -118.059816 291 34126ft 427kts
05-Sep-20 01:46 45.476673 -118.240129 291 34124ft 427kts
05-Sep-20 01:46 45.518102 -118.369293 291 34123ft 427kts
05-Sep-20 01:48 45.575786 -118.550212 291 34096ft 426kts
05-Sep-20 01:49 45.624676 -118.704699 290 34074ft 426kts
05-Sep-20 01:49 45.665408 -118.834024 291 34070ft 426kts
05-Sep-20 01:50 45.725977 -118.982104 300 34070ft 431kts
05-Sep-20 01:51 45.802786 -119.115997 304 34064ft 434kts
05-Sep-20 01:52 45.881387 -119.249175 304 34033ft 434kts
05-Sep-20 01:53 45.959315 -119.381896 304 34016ft 434kts
05-Sep-20 01:54 46.036943 -119.514733 304 34006ft 434kts
05-Sep-20 01:55 46.114391 -119.647773 304 33997ft 434kts
05-Sep-20 01:56 46.191973 -119.781534 303 33995ft 433kts
05-Sep-20 01:57 46.268990 -119.915366 303 34006ft 433kts
05-Sep-20 01:58 46.345622 -120.049135 303 34029ft 433kts
05-Sep-20 01:59 46.422253 -120.183569 303 34038ft 433kts
05-Sep-20 02:00 46.498799 -120.318538 303 34039ft 434kts
05-Sep-20 02:01 46.574291 -120.454227 300 34039ft 431kts
05-Sep-20 02:02 46.642642 -120.596341 299 33741ft 418kts
05-Sep-20 02:03 46.708161 -120.734393 298 32246ft 412kts
05-Sep-20 02:04 46.773834 -120.873248 298 29217ft 423kts
05-Sep-20 02:05 46.841526 -121.016975 299 25836ft 437kts
05-Sep-20 02:06 46.910951 -121.165054 298 22657ft 439kts
05-Sep-20 02:07 46.979089 -121.311144 299 20177ft 427kts
05-Sep-20 02:08 47.044953 -121.453185 299 17977ft 415kts
05-Sep-20 02:09 47.109114 -121.592293 300 15780ft 405kts
05-Sep-20 02:10 47.172167 -121.729202 300 13650ft 395kts
05-Sep-20 02:11 47.232602 -121.861499 301 12162ft 364kts
05-Sep-20 02:12 47.284867 -121.976304 301 11992ft 301kts
05-Sep-20 02:13 47.328118 -122.071876 300 11993ft 272kts
05-Sep-20 02:14 47.372512 -122.162419 326 11896ft 275kts
05-Sep-20 02:15 47.446139 -122.171888 358 10234ft 277kts
05-Sep-20 02:16 47.522061 -122.172397 358 8018ft 268kts
05-Sep-20 02:17 47.595189 -122.173450 358 5891ft 259kts
05-Sep-20 02:18 47.660743 -122.197235 298 4169ft 244kts
05-Sep-20 02:19 47.642985 -122.277446 225 3370ft 212kts
05-Sep-20 02:20 47.590559 -122.309452 182 2892ft 211kts
05-Sep-20 02:21 47.536449 -122.310300 180 1860ft 170kts
05-Sep-20 02:22 47.494528 -122.310708 180 1084ft 145kts
05-Sep-20 02:23 47.457856 -122.311067 181 438ft 133kts
05-Sep-20 02:24 47.439512 -122.309163 137 435ft 21kts
05-Sep-20 02:25 47.439934 -122.305018 91 435ft 10kts
05-Sep-20 02:26 47.439684 -122.302747 152 435ft 7kts
05-Sep-20 02:27 47.439375 -122.302512 152 435ft 0kts
05-Sep-20 02:28 47.439375 -122.302512 152 435ft 0kts
05-Sep-20 02:29 47.439375 -122.302512 152 435ft 0kts
05-Sep-20 02:30 47.439375 -122.302512 152 435ft 0kts
05-Sep-20 02:31 47.439375 -122.302512 152 435ft 0kts
05-Sep-20 02:32 47.439375 -122.302512 152 435ft 0kts
05-Sep-20 02:33 47.439375 -122.302512 152 435ft 0kts

Navigation Log

Ident Type
Flight plan parsing failed, navigation log unavailable